KCQF

Details ICAO KCQF
Name H L SONNY CALLAHAN
Region United States
Timezone America/Chicago (UTC-6.0)
Plans Departing 3
Arriving 4
Stats Elevation 95 ft / 29 m (AMSL)
Location 30.460510° -87.877448°
Runways 1
Magnetic Variation 2.355° W
Sunrise 2017-12-14 12:41:52 UTC / 2017-12-14 06:41:52 Local
Sunset 2017-12-14 22:53:32 UTC / 2017-12-14 16:53:32 Local
Advertisement - Login to hide

Runways

ID Width Length Bearing (true) Bearing (mag) Surface Threshold Offset Overrun Length
01 100 ft / 30 m 6,587 ft / 2,008 m 7.08° 9.43° Asphalt 0 ft / 0 m 0 ft / 0 m
19 100 ft / 30 m 6,587 ft / 2,008 m 187.08° 189.43° Asphalt 0 ft / 0 m 0 ft / 0 m

Map

Weather


0- 5 10 15 20 25 30 35+ Temperature / ° C

Clouds and Precipitation
Forecast for 2017-12-15 06:00 UTC. Updated an hour ago

Ground ~20,000 ft ~40,000 ft Winds

METAR

KCQF 150235Z AUTO 00000KT 10SM SCT120 08/08 A3003 RMK AO2

TAF

Not found

Frequencies

Unicom 123.00 MHz CTAF/UNICOM
Approach 118.50 MHz MOBILE APP/DEP
Warning: Do not use this data for real-world aviation or navigation. No guarantee of current accuracy is given.